Time;durP1;ratioP1;P1;durP2;ratioP2;P2;SDS_P1;SDS_P2;PMS_P1;PMS_P2;Temp;Humidity;BMP_temperature;BMP_pressure;BME280_temperature;BME280_humidity;BME280_pressure;Samples;Min_cycle;Max_cycle;Signal;HPM_P1;HPM_P2
2022/04/09 00:01:28;;;;;;;6.37;3.50;;;8.20;82.40;;;;;;5067410;28;20562;-38
2022/04/09 00:03:55;;;;;;;7.87;3.77;;;8.20;82.30;;;;;;5087043;28;20299;-37
2022/04/09 00:06:23;;;;;;;5.47;3.37;;;8.20;82.20;;;;;;5062532;28;20241;-38
2022/04/09 00:08:51;;;;;;;3.77;2.73;;;8.10;82.10;;;;;;5065914;28;20320;-38
2022/04/09 00:11:18;;;;;;;8.40;3.43;;;8.00;82.20;;;;;;5067864;28;20293;-38
2022/04/09 00:13:45;;;;;;;6.33;3.13;;;8.00;82.40;;;;;;5068063;28;20708;-37
2022/04/09 00:16:13;;;;;;;4.50;2.90;;;7.90;82.50;;;;;;5063642;28;20705;-38
2022/04/09 00:18:43;;;;;;;4.40;2.90;;;7.90;82.80;;;;;;5063210;28;20205;-40
2022/04/09 00:21:10;;;;;;;6.40;3.33;;;7.80;82.90;;;;;;5072406;28;20630;-38
2022/04/09 00:23:37;;;;;;;7.63;3.97;;;7.80;83.00;;;;;;5067719;28;20201;-40
2022/04/09 00:26:06;;;;;;;6.93;3.87;;;7.80;83.20;;;;;;5065563;28;20213;-37
2022/04/09 00:28:33;;;;;;;4.43;3.10;;;7.80;83.30;;;;;;5063973;28;20403;-38
2022/04/09 00:31:00;;;;;;;6.93;3.33;;;7.80;83.20;;;;;;5071744;28;20194;-38
2022/04/09 00:33:27;;;;;;;4.90;3.13;;;7.60;83.30;;;;;;5070064;28;20193;-37
2022/04/09 00:35:54;;;;;;;5.97;4.07;;;7.60;83.60;;;;;;5070691;28;20197;-37
2022/04/09 00:38:21;;;;;;;10.70;5.80;;;7.60;83.80;;;;;;5070737;28;20201;-37
2022/04/09 00:40:49;;;;;;;8.53;5.73;;;7.60;83.90;;;;;;5061229;28;20593;-37
2022/04/09 00:43:17;;;;;;;9.33;6.23;;;7.70;84.00;;;;;;5065427;28;20200;-38
2022/04/09 00:45:47;;;;;;;8.07;5.33;;;7.70;84.20;;;;;;5076942;28;20185;-37
2022/04/09 00:48:14;;;;;;;7.97;5.13;;;7.70;84.20;;;;;;5065594;28;20683;-37
2022/04/09 00:50:42;;;;;;;9.33;5.20;;;7.70;84.30;;;;;;5068475;28;20198;-38
2022/04/09 00:53:10;;;;;;;11.47;4.80;;;7.70;84.30;;;;;;5066049;28;20197;-38
2022/04/09 00:58:26;;;;;;;4.87;3.50;;;7.80;84.60;;;;;;5067507;28;20188;-39
2022/04/09 01:00:53;;;;;;;9.40;4.73;;;7.70;84.60;;;;;;5066587;28;20209;-38
2022/04/09 01:03:21;;;;;;;8.10;5.20;;;7.70;84.80;;;;;;5062295;28;20205;-37
2022/04/09 01:05:49;;;;;;;8.97;5.50;;;7.60;84.90;;;;;;5061603;28;20197;-38
2022/04/09 01:08:17;;;;;;;14.63;5.53;;;7.60;85.00;;;;;;5063932;28;20730;-37
2022/04/09 01:10:47;;;;;;;13.07;6.53;;;7.60;85.10;;;;;;5067101;28;20197;-37
2022/04/09 01:13:16;;;;;;;17.27;7.37;;;7.60;85.50;;;;;;5064365;28;20542;-38
2022/04/09 01:15:44;;;;;;;13.53;6.23;;;7.50;85.70;;;;;;5065020;28;20711;-38
2022/04/09 01:18:12;;;;;;;10.90;5.17;;;7.50;85.90;;;;;;5068071;28;20259;-38
2022/04/09 01:20:40;;;;;;;7.07;4.40;;;7.50;86.00;;;;;;5055959;28;20201;-38
2022/04/09 01:23:09;;;;;;;7.00;4.00;;;7.50;86.00;;;;;;5066745;28;20197;-37
2022/04/09 01:25:37;;;;;;;5.60;3.10;;;7.50;86.10;;;;;;5071758;28;20667;-37
2022/04/09 01:28:06;;;;;;;4.30;2.87;;;7.50;86.10;;;;;;5069223;28;20715;-38
2022/04/09 01:30:33;;;;;;;5.60;2.90;;;7.50;86.30;;;;;;5070273;28;20323;-38
2022/04/09 01:33:00;;;;;;;4.60;2.77;;;7.40;86.50;;;;;;5067200;28;20201;-38
2022/04/09 01:35:28;;;;;;;5.20;2.73;;;7.50;86.70;;;;;;5068929;28;20214;-38
2022/04/09 01:37:55;;;;;;;3.07;2.20;;;7.40;86.70;;;;;;5056948;28;20198;-38
2022/04/09 01:40:24;;;;;;;4.97;2.83;;;7.40;86.90;;;;;;5065094;28;20191;-38
2022/04/09 01:42:52;;;;;;;6.53;3.17;;;7.40;87.10;;;;;;5050819;28;20206;-38
2022/04/09 01:45:19;;;;;;;8.07;4.13;;;7.40;87.40;;;;;;5067293;28;20291;-38
2022/04/09 01:47:47;;;;;;;9.27;4.00;;;7.40;87.50;;;;;;5065534;28;20205;-38
2022/04/09 01:50:15;;;;;;;9.47;3.60;;;7.40;88.30;;;;;;5057412;28;20751;-38
2022/04/09 01:52:43;;;;;;;7.50;4.00;;;7.40;87.70;;;;;;5062515;28;20209;-38
2022/04/09 01:55:10;;;;;;;7.13;4.00;;;7.40;87.80;;;;;;5067644;28;20204;-37
2022/04/09 01:57:42;;;;;;;4.43;3.33;;;7.40;87.90;;;;;;5062441;28;20209;-37
2022/04/09 02:00:13;;;;;;;4.57;3.00;;;7.40;87.90;;;;;;5069578;28;20255;-37
2022/04/09 02:02:46;;;;;;;6.23;3.43;;;7.40;88.00;;;;;;5061254;28;20199;-36
2022/04/09 02:05:14;;;;;;;6.80;3.00;;;7.40;88.20;;;;;;5055388;28;20509;-37
2022/04/09 02:07:45;;;;;;;6.77;3.07;;;7.40;88.30;;;;;;5059289;28;20224;-37
2022/04/09 02:10:13;;;;;;;6.80;3.90;;;7.40;88.30;;;;;;5069330;28;20600;-37
2022/04/09 02:12:44;;;;;;;9.73;3.90;;;7.30;88.40;;;;;;5055914;28;20232;-37
2022/04/09 02:15:15;;;;;;;5.87;3.77;;;7.30;88.40;;;;;;5068079;28;20229;-37
2022/04/09 02:17:42;;;;;;;7.37;3.60;;;7.20;88.50;;;;;;5060630;28;20542;-37
2022/04/09 02:20:11;;;;;;;5.93;3.80;;;7.20;88.70;;;;;;5066546;28;20197;-37
2022/04/09 02:22:40;;;;;;;5.97;3.57;;;7.10;88.90;;;;;;5063167;28;20247;-37
2022/04/09 02:25:10;;;;;;;5.47;3.40;;;7.10;89.20;;;;;;5066878;28;20201;-37
2022/04/09 02:27:37;;;;;;;5.50;3.20;;;7.00;89.60;;;;;;5056438;28;20204;-36
2022/04/09 02:30:10;;;;;;;6.77;3.90;;;6.90;89.90;;;;;;5059839;28;20204;-37
2022/04/09 02:32:48;;;;;;;5.23;3.30;;;6.80;90.10;;;;;;5058645;28;20211;-37
2022/04/09 02:35:18;;;;;;;7.23;4.43;;;6.80;90.20;;;;;;5068672;28;20212;-37
2022/04/09 02:37:45;;;;;;;5.37;3.00;;;6.80;90.40;;;;;;5066908;28;20251;-37
2022/04/09 02:40:13;;;;;;;5.77;3.67;;;6.80;90.40;;;;;;5064256;28;20581;-37
2022/04/09 02:42:43;;;;;;;8.30;3.43;;;6.80;90.50;;;;;;5059258;28;20307;-37
2022/04/09 02:45:12;;;;;;;8.60;3.90;;;6.80;90.60;;;;;;5059269;28;20203;-38
2022/04/09 02:47:40;;;;;;;4.83;3.40;;;6.80;90.60;;;;;;5063607;28;20208;-38
2022/04/09 02:50:13;;;;;;;6.70;3.63;;;6.80;90.70;;;;;;5065175;28;20273;-37
2022/04/09 02:52:42;;;;;;;6.27;3.93;;;6.80;90.80;;;;;;5062184;28;20208;-38
2022/04/09 02:55:12;;;;;;;5.37;3.57;;;6.70;90.90;;;;;;5062419;28;20207;-38
2022/04/09 02:57:41;;;;;;;7.33;4.10;;;6.70;91.00;;;;;;5059751;28;20216;-38
2022/04/09 03:00:12;;;;;;;7.70;4.20;;;6.70;91.10;;;;;;5065334;28;20298;-36
2022/04/09 03:02:40;;;;;;;5.23;3.57;;;6.60;91.20;;;;;;5064653;28;20208;-36
2022/04/09 03:05:13;;;;;;;5.63;4.00;;;6.60;91.40;;;;;;5064505;28;20205;-36
2022/04/09 03:07:40;;;;;;;6.43;3.90;;;6.50;91.50;;;;;;5060602;28;20676;-37
2022/04/09 03:10:08;;;;;;;4.37;3.40;;;6.50;91.70;;;;;;5067770;28;20199;-37
2022/04/09 03:12:35;;;;;;;5.03;3.20;;;6.50;91.80;;;;;;5075320;28;20197;-37
2022/04/09 03:15:03;;;;;;;3.87;2.80;;;6.50;91.70;;;;;;5060905;28;20270;-37
2022/04/09 03:17:31;;;;;;;5.90;3.43;;;6.50;91.80;;;;;;5087353;28;20657;-37
2022/04/09 03:20:00;;;;;;;5.97;3.33;;;6.60;91.80;;;;;;5070426;28;20217;-38
2022/04/09 03:22:30;;;;;;;5.30;3.40;;;6.60;91.80;;;;;;5067056;28;20235;-37
2022/04/09 03:24:58;;;;;;;5.53;3.13;;;6.60;91.70;;;;;;5064983;28;20212;-38
2022/04/09 03:27:25;;;;;;;5.40;3.30;;;6.70;91.70;;;;;;5079800;28;20709;-37
2022/04/09 03:29:56;;;;;;;5.57;3.57;;;6.70;91.70;;;;;;5074895;28;20526;-37
2022/04/09 03:32:24;;;;;;;4.83;3.23;;;6.70;91.70;;;;;;5070352;28;20208;-37
2022/04/09 03:34:53;;;;;;;5.93;3.63;;;6.60;91.50;;;;;;5069734;28;20637;-37
2022/04/09 03:37:26;;;;;;;9.27;4.63;;;6.60;91.60;;;;;;5070600;28;20198;-37
2022/04/09 03:39:54;;;;;;;6.77;3.50;;;6.60;91.60;;;;;;5068139;28;20273;-38
2022/04/09 03:42:21;;;;;;;6.13;3.33;;;6.60;91.60;;;;;;5059479;28;20203;-37
2022/04/09 03:44:54;;;;;;;5.47;3.30;;;6.60;91.60;;;;;;5070806;28;20212;-38
2022/04/09 03:47:21;;;;;;;3.93;3.07;;;6.70;91.60;;;;;;5071679;28;20220;-37
2022/04/09 03:49:50;;;;;;;3.50;2.57;;;6.60;91.50;;;;;;5081390;28;20208;-38
2022/04/09 03:52:19;;;;;;;4.83;2.70;;;6.70;91.60;;;;;;5081955;28;20212;-37
2022/04/09 03:54:46;;;;;;;6.50;3.80;;;6.60;91.60;;;;;;5066057;28;20206;-37
2022/04/09 03:57:13;;;;;;;5.77;3.27;;;6.70;91.60;;;;;;5070956;28;20204;-37
2022/04/09 03:59:48;;;;;;;3.87;3.00;;;6.70;91.60;;;;;;5068020;28;20242;-37
2022/04/09 04:02:17;;;;;;;4.73;3.30;;;6.70;91.60;;;;;;5076928;28;20204;-37
2022/04/09 04:04:44;;;;;;;5.97;2.90;;;6.70;91.60;;;;;;5067823;28;20250;-37
2022/04/09 04:07:13;;;;;;;3.17;2.57;;;6.70;91.60;;;;;;5063085;28;20219;-37
2022/04/09 04:09:45;;;;;;;3.20;2.60;;;6.70;91.50;;;;;;5063811;28;20207;-38
2022/04/09 04:12:13;;;;;;;3.67;2.37;;;6.80;91.60;;;;;;5067807;28;20647;-37
2022/04/09 04:14:41;;;;;;;4.53;2.80;;;6.80;91.60;;;;;;5070332;28;20207;-38
2022/04/09 04:17:08;;;;;;;3.00;2.20;;;6.80;91.70;;;;;;5067139;28;20228;-37
2022/04/09 04:19:37;;;;;;;3.73;1.93;;;6.90;91.70;;;;;;5067207;28;20211;-38
2022/04/09 04:22:07;;;;;;;1.47;1.37;;;6.90;91.70;;;;;;5060119;28;20248;-38
2022/04/09 04:24:37;;;;;;;2.70;1.30;;;8.60;92.40;;;;;;5059128;28;20681;-38
2022/04/09 04:27:07;;;;;;;1.40;1.30;;;7.00;91.70;;;;;;5061437;28;20243;-40
2022/04/09 04:29:36;;;;;;;1.57;1.10;;;7.00;91.80;;;;;;5068301;28;20184;-38
2022/04/09 04:32:05;;;;;;;2.20;1.10;;;7.00;91.80;;;;;;5059308;28;20579;-38
2022/04/09 04:34:33;;;;;;;2.40;1.03;;;7.10;91.80;;;;;;5051651;28;20203;-37
2022/04/09 04:37:00;;;;;;;2.87;1.10;;;7.20;91.80;;;;;;5071119;28;20197;-38
2022/04/09 04:39:28;;;;;;;2.13;1.07;;;7.20;91.80;;;;;;5069548;28;20323;-37
2022/04/09 04:41:55;;;;;;;2.87;1.03;;;7.30;91.70;;;;;;5063341;28;20216;-38
2022/04/09 04:44:24;;;;;;;2.07;1.10;;;7.30;91.70;;;;;;5089513;28;20211;-37
2022/04/09 04:46:55;;;;;;;1.63;1.20;;;7.30;91.60;;;;;;5067893;28;20204;-37
2022/04/09 04:49:25;;;;;;;1.47;1.10;;;7.40;91.60;;;;;;5069054;28;20218;-37
2022/04/09 04:51:58;;;;;;;1.93;1.03;;;7.30;91.60;;;;;;5068306;28;20239;-37
2022/04/09 04:54:25;;;;;;;2.33;1.20;;;7.40;91.60;;;;;;5070061;28;20315;-37
2022/04/09 04:56:53;;;;;;;3.80;1.40;;;7.40;91.60;;;;;;5067585;28;20254;-38
2022/04/09 04:59:21;;;;;;;2.30;1.23;;;7.50;91.60;;;;;;5069833;28;20291;-37
2022/04/09 05:01:50;;;;;;;1.37;1.03;;;7.50;91.60;;;;;;5069459;28;20201;-37
2022/04/09 05:04:17;;;;;;;1.30;1.20;;;7.50;91.50;;;;;;5063326;28;20190;-37
2022/04/09 05:06:57;;;;;;;1.60;1.00;;;7.60;91.50;;;;;;5065065;28;20210;-37
2022/04/09 05:09:26;;;;;;;1.40;1.13;;;7.80;91.40;;;;;;5083883;28;20264;-37
2022/04/09 05:11:56;;;;;;;2.20;1.10;;;7.80;91.30;;;;;;5066510;28;20204;-37
2022/04/09 05:14:31;;;;;;;1.40;1.30;;;7.80;91.20;;;;;;5069555;28;20209;-37
2022/04/09 05:17:06;;;;;;;1.67;1.17;;;7.90;91.20;;;;;;5070503;28;20201;-38
2022/04/09 05:19:35;;;;;;;1.20;1.10;;;7.90;91.10;;;;;;5063737;28;20255;-37
2022/04/09 05:22:08;;;;;;;2.53;1.10;;;7.90;91.00;;;;;;5057444;28;20279;-38
2022/04/09 05:24:43;;;;;;;3.37;1.70;;;7.90;91.10;;;;;;5069861;28;20688;-38
2022/04/09 05:27:15;;;;;;;1.67;1.30;;;7.90;91.10;;;;;;5069814;28;20297;-37
2022/04/09 05:29:42;;;;;;;3.13;1.23;;;7.90;91.10;;;;;;5068870;28;20244;-37
2022/04/09 05:32:12;;;;;;;2.33;1.20;;;7.90;91.00;;;;;;5069091;28;20250;-37
2022/04/09 05:34:41;;;;;;;1.47;1.37;;;7.90;91.00;;;;;;5074558;28;20184;-37
2022/04/09 05:37:08;;;;;;;2.17;1.70;;;7.90;91.00;;;;;;5068265;28;20212;-38
2022/04/09 05:39:37;;;;;;;2.10;1.40;;;7.90;91.00;;;;;;5068216;28;20635;-37
2022/04/09 05:42:07;;;;;;;3.37;1.60;;;7.90;90.90;;;;;;5056622;28;20202;-37
2022/04/09 05:44:34;;;;;;;3.60;1.80;;;7.90;91.00;;;;;;5065190;28;20295;-37
2022/04/09 05:47:01;;;;;;;3.60;1.83;;;7.90;91.00;;;;;;5069979;28;20197;-36
2022/04/09 05:49:30;;;;;;;2.60;1.70;;;7.90;91.00;;;;;;5067216;28;20681;-36
2022/04/09 05:51:58;;;;;;;4.70;1.80;;;7.90;90.90;;;;;;5066117;28;20205;-36
2022/04/09 05:54:26;;;;;;;1.20;1.20;;;7.90;90.90;;;;;;5065511;28;20201;-36
2022/04/09 05:56:55;;;;;;;1.83;1.50;;;7.90;90.80;;;;;;5069423;28;20205;-36
2022/04/09 05:59:26;;;;;;;4.17;1.70;;;7.90;90.80;;;;;;5066273;28;20202;-36
2022/04/09 06:01:55;;;;;;;1.40;1.30;;;8.00;90.70;;;;;;5069273;28;20201;-36
2022/04/09 06:04:22;;;;;;;2.53;1.57;;;8.00;90.60;;;;;;5069503;28;20224;-36
2022/04/09 06:06:55;;;;;;;2.30;1.27;;;8.10;90.50;;;;;;5073620;28;20192;-37
2022/04/09 06:09:25;;;;;;;3.43;1.40;;;8.10;90.40;;;;;;5061526;28;20210;-37
2022/04/09 06:12:01;;;;;;;2.37;1.67;;;8.10;90.30;;;;;;5060543;28;20192;-37
2022/04/09 06:14:36;;;;;;;2.20;1.60;;;8.10;90.20;;;;;;5066139;28;20283;-36
2022/04/09 06:17:06;;;;;;;3.07;1.63;;;8.20;90.10;;;;;;5064011;28;20193;-37
2022/04/09 06:19:35;;;;;;;3.67;1.40;;;8.10;90.00;;;;;;5065010;28;20288;-37
2022/04/09 06:22:04;;;;;;;3.43;1.30;;;8.20;90.00;;;;;;5083883;28;20229;-37
2022/04/09 06:24:31;;;;;;;2.77;1.50;;;8.20;88.90;;;;;;5066147;28;20190;-37
2022/04/09 06:26:58;;;;;;;1.73;1.23;;;8.20;88.90;;;;;;5064488;28;20665;-38
2022/04/09 06:29:26;;;;;;;2.77;1.47;;;8.30;88.70;;;;;;5066627;28;20632;-38
2022/04/09 06:31:57;;;;;;;2.60;1.50;;;8.40;88.40;;;;;;5076880;28;20603;-37
2022/04/09 06:34:25;;;;;;;3.47;1.40;;;8.40;87.80;;;;;;5056619;28;20565;-38
2022/04/09 06:36:55;;;;;;;2.50;1.27;;;8.50;87.20;;;;;;5067094;28;20200;-39
2022/04/09 06:39:23;;;;;;;2.83;1.43;;;8.50;86.70;;;;;;5062349;28;21307;-36
2022/04/09 06:41:50;;;;;;;5.07;1.53;;;8.50;86.50;;;;;;5060233;28;20193;-37
2022/04/09 06:44:24;;;;;;;3.57;1.20;;;8.60;85.60;;;;;;5066563;28;20204;-37
2022/04/09 06:46:57;;;;;;;4.83;1.60;;;8.60;85.00;;;;;;5060419;28;20204;-37
2022/04/09 06:49:29;;;;;;;1.53;1.17;;;8.70;84.60;;;;;;5057763;28;20205;-37
2022/04/09 06:52:25;;;;;;;4.17;1.40;;;8.80;84.50;;;;;;5057965;28;20281;-36
2022/04/09 06:55:10;;;;;;;4.90;1.53;;;8.90;83.80;;;;;;5060473;28;20209;-36
2022/04/09 06:57:41;;;;;;;4.93;1.90;;;8.90;83.00;;;;;;5053985;28;20292;-37
2022/04/09 07:00:13;;;;;;;1.87;1.10;;;9.00;83.10;;;;;;5060611;28;20208;-37
2022/04/09 07:02:41;;;;;;;4.37;1.40;;;9.00;82.60;;;;;;5085965;28;20716;-40
2022/04/09 07:05:09;;;;;;;1.70;1.30;;;8.90;82.30;;;;;;5068065;28;20196;-40
2022/04/09 07:07:36;;;;;;;5.73;1.30;;;8.90;82.60;;;;;;5069066;28;20199;-37
2022/04/09 07:10:07;;;;;;;2.17;1.10;;;8.90;82.40;;;;;;5070020;28;20215;-37
2022/04/09 07:12:35;;;;;;;3.40;1.07;;;8.90;81.60;;;;;;5074745;28;20523;-38
2022/04/09 07:15:03;;;;;;;3.87;1.20;;;9.00;81.30;;;;;;5074299;28;20225;-37
2022/04/09 07:17:31;;;;;;;4.00;1.20;;;9.10;80.00;;;;;;5066388;28;20194;-38
2022/04/09 07:19:59;;;;;;;1.20;1.00;;;9.10;79.20;;;;;;5063401;28;20214;-39
2022/04/09 07:22:26;;;;;;;1.50;1.27;;;9.10;78.70;;;;;;5068434;28;20205;-38
2022/04/09 07:24:53;;;;;;;4.50;1.10;;;9.10;78.40;;;;;;5064379;28;20542;-41
2022/04/09 07:27:20;;;;;;;5.03;1.30;;;9.20;77.90;;;;;;5065939;28;20281;-42
2022/04/09 07:29:49;;;;;;;2.43;1.30;;;9.20;76.50;;;;;;5065599;28;20244;-42
2022/04/09 07:32:16;;;;;;;1.80;1.20;;;9.30;76.10;;;;;;5062747;28;20541;-41
2022/04/09 07:34:44;;;;;;;4.37;1.20;;;9.40;75.70;;;;;;5067583;28;20201;-38
2022/04/09 07:37:11;;;;;;;4.73;1.30;;;9.40;75.20;;;;;;5063436;28;20195;-37
2022/04/09 07:39:38;;;;;;;6.33;1.43;;;9.40;74.70;;;;;;5059220;28;20197;-38
2022/04/09 07:42:05;;;;;;;2.00;1.23;;;9.50;73.90;;;;;;5067711;28;20204;-44
2022/04/09 07:44:32;;;;;;;2.83;1.23;;;9.40;73.90;;;;;;5070270;28;20654;-41
2022/04/09 07:47:01;;;;;;;6.43;1.43;;;9.40;74.10;;;;;;5061530;28;20624;-41
2022/04/09 07:49:28;;;;;;;2.53;1.30;;;9.50;74.10;;;;;;5067058;28;20205;-41
2022/04/09 07:51:55;;;;;;;4.37;1.43;;;9.50;73.00;;;;;;5065014;28;20687;-39
2022/04/09 07:54:24;;;;;;;4.70;1.70;;;9.60;73.00;;;;;;5066515;28;20195;-39
2022/04/09 07:56:51;;;;;;;5.37;1.30;;;9.70;72.50;;;;;;5063107;28;20195;-39
2022/04/09 07:59:18;;;;;;;2.13;1.23;;;9.80;72.00;;;;;;5068013;28;20290;-40
2022/04/09 08:01:45;;;;;;;4.40;1.20;;;9.90;72.00;;;;;;5057057;28;20204;-38
2022/04/09 08:04:13;;;;;;;1.90;1.40;;;10.00;70.40;;;;;;5053545;28;20600;-39
2022/04/09 08:06:40;;;;;;;2.07;1.13;;;10.10;69.50;;;;;;5070918;28;20199;-39
2022/04/09 08:09:08;;;;;;;2.47;1.00;;;10.10;69.00;;;;;;5062162;28;20946;-42
2022/04/09 08:11:35;;;;;;;4.83;1.17;;;10.20;68.40;;;;;;5073473;28;20227;-41
2022/04/09 08:14:02;;;;;;;2.67;1.33;;;10.30;67.90;;;;;;5068388;28;20668;-45
2022/04/09 08:16:29;;;;;;;4.77;1.40;;;10.40;67.40;;;;;;5064519;28;20688;-43
2022/04/09 08:18:57;;;;;;;2.77;1.20;;;10.40;66.30;;;;;;5066097;28;20192;-40
2022/04/09 08:21:25;;;;;;;1.83;1.07;;;10.50;65.80;;;;;;5077370;28;20200;-48
2022/04/09 08:23:53;;;;;;;3.53;1.53;;;10.60;65.60;;;;;;5071937;28;20193;-41
2022/04/09 08:26:20;;;;;;;2.33;1.20;;;10.60;64.80;;;;;;5068500;28;20651;-42
2022/04/09 08:28:47;;;;;;;2.50;1.20;;;10.60;64.40;;;;;;5072428;28;20214;-39
2022/04/09 08:31:14;;;;;;;3.40;1.27;;;10.60;64.10;;;;;;5067291;28;20671;-41
2022/04/09 08:33:42;;;;;;;2.63;1.00;;;10.60;63.60;;;;;;5061826;28;20197;-38
2022/04/09 08:36:10;;;;;;;0.90;0.87;;;10.60;62.10;;;;;;5068056;28;20575;-37
2022/04/09 08:38:38;;;;;;;2.47;0.80;;;10.60;62.20;;;;;;5071829;28;20196;-46
2022/04/09 08:41:05;;;;;;;1.13;0.93;;;10.60;62.20;;;;;;5058864;28;20239;-38
2022/04/09 08:43:33;;;;;;;3.10;1.30;;;10.50;60.30;;;;;;5056958;28;20199;-38
2022/04/09 08:46:02;;;;;;;3.37;1.20;;;10.50;60.20;;;;;;5064616;28;20197;-38
2022/04/09 08:48:29;;;;;;;2.00;0.90;;;10.40;60.40;;;;;;5069558;28;20252;-38
2022/04/09 08:50:57;;;;;;;2.67;1.27;;;10.50;60.20;;;;;;5066007;28;20199;-38
2022/04/09 08:53:24;;;;;;;3.13;1.33;;;10.60;59.70;;;;;;5069909;28;20231;-42
2022/04/09 08:55:53;;;;;;;2.90;1.20;;;10.70;58.50;;;;;;5068050;28;20201;-38
2022/04/09 08:58:20;;;;;;;3.87;1.33;;;10.80;58.30;;;;;;5066250;28;20201;-38
2022/04/09 09:00:49;;;;;;;3.50;1.20;;;10.90;58.00;;;;;;5066661;28;20199;-37
2022/04/09 09:03:16;;;;;;;1.93;1.03;;;10.90;58.10;;;;;;5061192;28;20208;-38
2022/04/09 09:05:48;;;;;;;3.43;1.20;;;11.00;58.00;;;;;;5062293;28;20208;-37
2022/04/09 09:08:15;;;;;;;2.10;1.33;;;11.00;57.70;;;;;;5062772;28;20195;-37
2022/04/09 09:10:43;;;;;;;2.47;1.20;;;11.10;57.40;;;;;;5053115;28;20201;-37
2022/04/09 09:13:12;;;;;;;3.67;1.43;;;11.10;57.40;;;;;;5065486;28;20206;-37
2022/04/09 09:15:47;;;;;;;4.77;1.20;;;11.20;56.90;;;;;;5072641;28;20228;-36
2022/04/09 09:18:20;;;;;;;3.87;1.00;;;11.10;56.90;;;;;;5070165;28;20204;-37
2022/04/09 09:20:52;;;;;;;3.23;1.40;;;11.10;56.90;;;;;;5101691;28;20205;-36
2022/04/09 09:23:23;;;;;;;3.20;1.37;;;11.20;57.00;;;;;;5071113;28;20254;-36
2022/04/09 09:25:51;;;;;;;0.97;0.90;;;11.40;57.00;;;;;;5070625;28;20580;-38
2022/04/09 09:28:30;;;;;;;4.30;1.20;;;11.60;56.40;;;;;;5071020;28;20214;-37
2022/04/09 09:30:58;;;;;;;2.20;1.30;;;11.70;55.50;;;;;;5070112;28;20210;-37
2022/04/09 09:33:26;;;;;;;4.30;1.27;;;11.70;55.60;;;;;;5067134;28;20563;-37
2022/04/09 09:35:54;;;;;;;3.93;1.40;;;11.70;55.60;;;;;;5068657;28;20200;-37
2022/04/09 09:38:23;;;;;;;3.27;1.30;;;11.70;55.80;;;;;;5065904;28;20629;-37
2022/04/09 09:40:50;;;;;;;5.23;1.50;;;11.80;55.60;;;;;;5065085;28;20204;-36
2022/04/09 09:43:18;;;;;;;1.33;1.00;;;11.70;55.30;;;;;;5063566;28;20204;-36
2022/04/09 09:45:47;;;;;;;1.13;1.00;;;11.60;55.70;;;;;;5069662;28;20280;-37
2022/04/09 09:48:25;;;;;;;2.83;1.10;;;11.70;56.20;;;;;;5069250;28;20193;-37
2022/04/09 09:50:53;;;;;;;1.40;1.10;;;11.80;56.30;;;;;;5068899;28;20252;-37
2022/04/09 09:53:29;;;;;;;2.97;1.10;;;11.90;57.00;;;;;;5070031;28;20672;-40
2022/04/09 09:55:56;;;;;;;2.00;1.23;;;11.90;56.30;;;;;;5070609;28;20201;-37
2022/04/09 09:58:24;;;;;;;2.63;1.00;;;11.80;56.40;;;;;;5066205;28;20208;-37
2022/04/09 10:00:53;;;;;;;3.77;1.43;;;11.70;56.30;;;;;;5064301;28;20569;-37
2022/04/09 10:03:20;;;;;;;3.90;1.50;;;11.50;56.30;;;;;;5068525;28;20574;-38
2022/04/09 10:05:50;;;;;;;2.90;1.40;;;11.30;57.00;;;;;;5070325;28;20228;-37
2022/04/09 10:08:17;;;;;;;3.17;0.90;;;11.10;59.30;;;;;;5070179;28;20191;-37
2022/04/09 10:10:48;;;;;;;2.17;1.10;;;10.90;62.10;;;;;;5070366;28;20232;-37
2022/04/09 10:13:20;;;;;;;0.60;0.60;;;10.70;66.00;;;;;;5066064;28;20620;-37
2022/04/09 10:15:50;;;;;;;1.77;0.80;;;10.40;67.70;;;;;;5068855;28;20325;-36
2022/04/09 10:18:23;;;;;;;1.07;0.83;;;10.00;69.60;;;;;;5065043;28;20261;-37
2022/04/09 10:20:53;;;;;;;0.50;0.50;;;9.80;73.00;;;;;;5070122;28;20273;-37
2022/04/09 10:23:22;;;;;;;0.73;0.73;;;9.50;73.90;;;;;;5070516;28;20201;-37
2022/04/09 10:25:51;;;;;;;1.13;0.70;;;9.40;74.70;;;;;;5066715;28;20274;-37
2022/04/09 10:28:32;;;;;;;1.30;0.80;;;9.40;75.10;;;;;;5066669;28;20667;-37
2022/04/09 10:30:59;;;;;;;0.80;0.80;;;9.60;75.70;;;;;;5069090;28;20733;-36
2022/04/09 10:33:29;;;;;;;1.10;0.93;;;9.90;76.20;;;;;;5068480;28;20200;-37
2022/04/09 10:36:01;;;;;;;2.27;1.30;;;10.10;76.10;;;;;;5060737;28;20187;-37
2022/04/09 10:38:29;;;;;;;2.03;1.40;;;10.40;76.70;;;;;;5063953;28;20759;-37
2022/04/09 10:41:28;;;;;;;1.77;1.27;;;10.60;76.30;;;;;;5056301;28;20239;-37
2022/04/09 10:43:59;;;;;;;2.43;1.27;;;10.80;75.80;;;;;;5060812;28;20209;-37
2022/04/09 10:46:35;;;;;;;1.90;1.40;;;11.00;75.60;;;;;;5055778;28;20199;-37
2022/04/09 10:49:28;;;;;;;2.97;1.70;;;11.30;75.90;;;;;;5061978;28;20206;-37
2022/04/09 10:52:15;;;;;;;2.13;1.27;;;11.60;76.20;;;;;;5069761;28;20288;-37
2022/04/09 10:55:03;;;;;;;2.80;1.53;;;11.70;75.30;;;;;;5069596;28;20200;-37
2022/04/09 10:57:41;;;;;;;4.57;1.37;;;11.70;74.60;;;;;;5065373;28;20199;-37
2022/04/09 11:00:29;;;;;;;2.67;1.27;;;11.90;74.60;;;;;;5070405;28;20277;-37
2022/04/09 11:03:06;;;;;;;1.97;1.03;;;11.90;74.30;;;;;;5058301;28;20343;-37
2022/04/09 11:05:34;;;;;;;2.50;1.27;;;11.90;73.10;;;;;;5067804;28;20686;-37
2022/04/09 11:08:06;;;;;;;2.87;1.30;;;12.00;73.10;;;;;;5067796;28;20207;-37
2022/04/09 11:10:33;;;;;;;2.37;1.53;;;12.10;73.20;;;;;;5068691;28;20224;-37
2022/04/09 11:13:00;;;;;;;2.77;1.60;;;12.20;72.40;;;;;;5064628;28;20463;-38
2022/04/09 11:15:28;;;;;;;4.37;1.70;;;12.20;71.20;;;;;;5069112;28;20228;-38
2022/04/09 11:18:01;;;;;;;3.87;1.50;;;12.20;70.10;;;;;;5065600;28;20565;-37
2022/04/09 11:20:32;;;;;;;3.13;1.70;;;12.30;68.20;;;;;;5069816;28;20190;-37
2022/04/09 11:23:09;;;;;;;4.63;1.60;;;12.30;66.60;;;;;;5065998;28;20205;-37
2022/04/09 11:25:36;;;;;;;2.50;1.37;;;12.40;66.90;;;;;;5066742;28;20243;-38
2022/04/09 11:28:08;;;;;;;4.80;1.87;;;12.40;65.30;;;;;;5069173;28;20656;-38
2022/04/09 11:30:35;;;;;;;3.17;1.30;;;12.50;62.80;;;;;;5072635;28;20223;-37
2022/04/09 11:33:02;;;;;;;3.87;1.47;;;12.60;61.30;;;;;;5071160;28;20215;-37
2022/04/09 11:35:34;;;;;;;2.80;1.33;;;12.70;60.90;;;;;;5067513;28;20209;-37
2022/04/09 11:38:09;;;;;;;4.60;1.47;;;12.80;57.40;;;;;;5066911;28;20235;-38
2022/04/09 11:40:42;;;;;;;1.87;1.20;;;12.90;55.30;;;;;;5059827;28;20201;-37
2022/04/09 11:43:09;;;;;;;1.90;1.03;;;12.90;55.30;;;;;;5066213;28;20193;-37
2022/04/09 11:45:36;;;;;;;2.87;1.30;;;12.90;53.50;;;;;;5069137;28;20189;-37
2022/04/09 11:48:04;;;;;;;1.47;0.80;;;12.90;51.80;;;;;;5063904;28;20201;-37
2022/04/09 11:50:32;;;;;;;4.47;1.50;;;12.90;52.50;;;;;;5073311;28;20593;-37
2022/04/09 11:53:11;;;;;;;3.43;1.40;;;13.00;51.90;;;;;;5065656;28;20203;-36
2022/04/09 11:55:39;;;;;;;4.43;1.30;;;13.10;51.80;;;;;;5085944;28;20298;-37
2022/04/09 11:58:07;;;;;;;2.73;1.23;;;13.10;50.60;;;;;;5064256;28;20247;-38
2022/04/09 12:00:37;;;;;;;1.73;1.13;;;13.20;50.30;;;;;;5058571;28;20205;-37
2022/04/09 12:03:05;;;;;;;2.20;1.07;;;13.20;50.00;;;;;;5056392;28;20677;-37
2022/04/09 12:05:37;;;;;;;3.07;1.30;;;13.20;49.10;;;;;;5061646;28;20202;-37
2022/04/09 12:08:07;;;;;;;3.77;1.27;;;13.20;48.00;;;;;;5071543;28;20246;-38
2022/04/09 12:10:50;;;;;;;4.00;1.13;;;13.10;48.40;;;;;;5071064;28;20259;-36
2022/04/09 12:13:25;;;;;;;3.30;1.20;;;13.10;48.80;;;;;;5070934;28;20255;-37
2022/04/09 12:15:52;;;;;;;3.73;1.30;;;13.20;48.10;;;;;;5070059;28;20256;-38
2022/04/09 12:18:27;;;;;;;2.80;1.27;;;13.30;47.40;;;;;;5070155;28;20212;-37
2022/04/09 12:20:55;;;;;;;4.73;1.43;;;13.40;47.60;;;;;;5071427;28;20185;-37
2022/04/09 12:23:30;;;;;;;7.10;1.40;;;13.40;47.60;;;;;;5058865;28;20304;-37
2022/04/09 12:25:59;;;;;;;4.97;1.40;;;13.50;46.80;;;;;;5068847;28;20557;-36
2022/04/09 12:28:28;;;;;;;4.33;1.57;;;13.50;46.40;;;;;;5068804;28;20205;-36
2022/04/09 12:30:56;;;;;;;1.23;1.13;;;13.40;46.90;;;;;;5069369;28;20214;-36
2022/04/09 12:33:24;;;;;;;2.37;1.17;;;13.50;47.40;;;;;;5070388;28;20225;-36
2022/04/09 12:36:06;;;;;;;4.20;1.27;;;13.50;48.10;;;;;;5069316;28;20212;-36
2022/04/09 12:38:35;;;;;;;3.00;1.47;;;13.60;46.80;;;;;;5072113;28;20197;-36
2022/04/09 12:41:07;;;;;;;3.30;1.23;;;14.10;46.10;;;;;;5058616;28;20248;-36
2022/04/09 12:43:35;;;;;;;2.67;1.20;;;13.50;45.70;;;;;;5066048;28;20208;-36
2022/04/09 12:46:07;;;;;;;4.70;1.23;;;13.50;45.40;;;;;;5062869;28;20222;-36
2022/04/09 12:48:42;;;;;;;2.87;1.20;;;13.50;45.50;;;;;;5063929;28;20384;-37
2022/04/09 12:51:09;;;;;;;3.43;1.00;;;13.70;45.90;;;;;;5065193;28;20260;-36
2022/04/09 12:53:37;;;;;;;2.43;1.27;;;13.80;44.40;;;;;;5068344;28;20191;-36
2022/04/09 12:56:10;;;;;;;3.30;1.37;;;13.70;43.80;;;;;;5064256;28;20209;-37
2022/04/09 12:58:37;;;;;;;2.70;1.20;;;13.60;44.10;;;;;;5062010;28;20190;-36
2022/04/09 13:01:05;;;;;;;1.47;1.20;;;13.60;44.60;;;;;;5063046;28;20192;-37
2022/04/09 13:03:33;;;;;;;2.40;1.23;;;13.60;44.90;;;;;;5068460;28;20597;-37
2022/04/09 13:06:00;;;;;;;3.70;1.37;;;13.70;45.40;;;;;;5071648;28;20197;-36
2022/04/09 13:08:28;;;;;;;4.17;1.50;;;13.90;45.50;;;;;;5057673;28;20201;-37